createdAt,value
2023-04-22T00:00:42.159Z,6.70
2023-04-22T00:01:42.022Z,8.50
2023-04-22T00:02:42.196Z,7.40
2023-04-22T00:03:42.232Z,6.40
2023-04-22T00:04:42.296Z,6.80
2023-04-22T00:05:42.165Z,7.10
2023-04-22T00:06:41.970Z,6.40
2023-04-22T00:07:42.033Z,5.40
2023-04-22T00:08:41.935Z,7.10
2023-04-22T00:09:41.913Z,8.30
2023-04-22T00:10:41.949Z,6.20
2023-04-22T00:11:41.969Z,6.10
2023-04-22T00:12:41.933Z,7.50
2023-04-22T00:13:42.047Z,6.30
2023-04-22T00:14:41.963Z,10.00
2023-04-22T00:15:41.904Z,7.40
2023-04-22T00:16:41.995Z,6.20
2023-04-22T00:17:41.919Z,6.80
2023-04-22T00:18:41.851Z,6.80
2023-04-22T00:19:41.859Z,7.50
2023-04-22T00:20:41.843Z,9.20
2023-04-22T00:21:41.824Z,8.70
2023-04-22T00:22:41.783Z,7.70
2023-04-22T00:23:41.757Z,5.90
2023-04-22T00:24:41.782Z,9.30
2023-04-22T00:25:41.769Z,6.20
2023-04-22T00:26:41.759Z,9.40
2023-04-22T00:27:41.718Z,5.80
2023-04-22T00:28:41.712Z,7.10
2023-04-22T00:29:41.736Z,5.50
2023-04-22T00:30:41.726Z,7.60
2023-04-22T00:31:41.785Z,5.00
2023-04-22T00:32:41.736Z,6.10
2023-04-22T00:33:41.681Z,7.10
2023-04-22T00:34:41.659Z,5.90
2023-04-22T00:35:41.670Z,5.20
2023-04-22T00:36:41.695Z,6.00
2023-04-22T00:37:41.625Z,6.20
2023-04-22T00:38:41.647Z,8.40
2023-04-22T00:39:41.757Z,7.50
2023-04-22T00:40:41.589Z,5.70
2023-04-22T00:41:41.590Z,7.80
2023-04-22T00:42:41.569Z,6.20
2023-04-22T00:43:41.596Z,6.70
2023-04-22T00:44:41.543Z,8.80
2023-04-22T00:45:41.557Z,6.30
2023-04-22T00:46:41.542Z,6.30
2023-04-22T00:47:41.634Z,8.70
2023-04-22T00:48:41.507Z,6.30
2023-04-22T00:49:41.791Z,6.20
2023-04-22T00:50:41.532Z,5.60
2023-04-22T00:51:41.502Z,6.10
2023-04-22T00:52:41.468Z,7.50
2023-04-22T00:53:41.472Z,8.60
2023-04-22T00:54:41.442Z,6.00
2023-04-22T00:55:41.491Z,6.80
2023-04-22T00:56:41.489Z,8.40
2023-04-22T00:57:41.449Z,7.40
2023-04-22T00:58:41.380Z,6.00
2023-04-22T00:59:41.777Z,8.20
2023-04-22T01:00:41.486Z,7.10
2023-04-22T01:01:41.363Z,6.20
2023-04-22T01:02:41.505Z,6.60
2023-04-22T01:03:41.607Z,6.10
2023-04-22T01:04:41.428Z,6.90
2023-04-22T01:05:41.352Z,6.30
2023-04-22T01:06:41.341Z,5.30
2023-04-22T01:07:41.314Z,6.10
2023-04-22T01:08:41.314Z,7.00
2023-04-22T01:09:41.688Z,6.80
2023-04-22T01:10:41.283Z,8.70
2023-04-22T01:11:41.260Z,6.50
2023-04-22T01:12:41.259Z,7.90
2023-04-22T01:13:41.254Z,6.90
2023-04-22T01:14:41.272Z,7.20
2023-04-22T01:15:41.227Z,6.20
2023-04-22T01:16:41.268Z,6.00
2023-04-22T01:17:41.237Z,7.80
2023-04-22T01:18:41.220Z,6.60
2023-04-22T01:19:41.832Z,10.90
2023-04-22T01:20:41.189Z,7.20
2023-04-22T01:21:41.187Z,6.80
2023-04-22T01:22:41.187Z,7.80
2023-04-22T01:23:41.149Z,6.70
2023-04-22T01:24:41.130Z,8.80
2023-04-22T01:25:41.152Z,6.70
2023-04-22T01:26:41.137Z,8.00
2023-04-22T01:27:41.118Z,8.60
2023-04-22T01:28:41.103Z,8.20
2023-04-22T01:29:41.289Z,6.80
2023-04-22T01:30:41.102Z,6.10
2023-04-22T01:31:41.067Z,6.20
2023-04-22T01:32:41.250Z,6.30
2023-04-22T01:33:41.093Z,8.80
2023-04-22T01:34:41.058Z,6.70
2023-04-22T01:35:40.997Z,6.60
2023-04-22T01:36:41.058Z,6.30
2023-04-22T01:37:41.026Z,6.70
2023-04-22T01:38:41.031Z,6.50
2023-04-22T01:39:41.253Z,5.70
2023-04-22T01:40:41.021Z,6.20
2023-04-22T01:41:40.938Z,7.20
2023-04-22T01:42:40.942Z,6.40
2023-04-22T01:43:41.018Z,7.60
2023-04-22T01:44:40.949Z,5.00
2023-04-22T01:45:41.000Z,7.50
2023-04-22T01:46:40.898Z,4.90
2023-04-22T01:47:40.944Z,6.20
2023-04-22T01:48:40.897Z,5.90
2023-04-22T01:49:41.276Z,7.80
2023-04-22T01:50:40.890Z,6.70
2023-04-22T01:51:40.893Z,6.00
2023-04-22T01:52:40.869Z,5.90
2023-04-22T01:53:40.884Z,6.40
2023-04-22T01:54:40.804Z,5.60
2023-04-22T01:55:40.810Z,7.50
2023-04-22T01:56:40.819Z,6.40
2023-04-22T01:57:40.822Z,5.10
2023-04-22T01:58:40.762Z,6.70
2023-04-22T01:59:40.961Z,5.80
2023-04-22T02:00:40.763Z,6.00
2023-04-22T02:01:40.823Z,6.80
2023-04-22T02:02:40.913Z,7.70
2023-04-22T02:03:40.868Z,5.50
2023-04-22T02:04:40.800Z,7.70
2023-04-22T02:05:40.691Z,8.00
2023-04-22T02:06:40.692Z,7.30
2023-04-22T02:07:40.697Z,6.70
2023-04-22T02:08:40.682Z,6.50
2023-04-22T02:09:41.166Z,7.00
2023-04-22T02:10:40.635Z,7.70
2023-04-22T02:11:40.619Z,6.60
2023-04-22T02:12:40.649Z,7.20
2023-04-22T02:13:40.647Z,7.70
2023-04-22T02:14:40.584Z,7.00
2023-04-22T02:15:40.602Z,6.70
2023-04-22T02:16:40.619Z,7.20
2023-04-22T02:17:40.571Z,6.20
2023-04-22T02:18:40.576Z,6.90
2023-04-22T02:19:40.782Z,6.70
2023-04-22T02:20:40.555Z,7.10
2023-04-22T02:21:40.533Z,5.70
2023-04-22T02:22:40.560Z,7.20
2023-04-22T02:23:40.515Z,7.10
2023-04-22T02:24:40.529Z,9.60
2023-04-22T02:25:40.495Z,6.30
2023-04-22T02:26:40.517Z,8.10
2023-04-22T02:27:40.444Z,7.70
2023-04-22T02:28:40.492Z,6.40
2023-04-22T02:29:40.740Z,7.40
2023-04-22T02:30:40.448Z,7.40
2023-04-22T02:31:40.483Z,5.90
2023-04-22T02:32:40.486Z,6.50
2023-04-22T02:33:40.458Z,5.80
2023-04-22T02:34:40.380Z,6.90
2023-04-22T02:35:40.444Z,5.40
2023-04-22T02:36:40.383Z,5.60
2023-04-22T02:37:40.354Z,7.30
2023-04-22T02:38:40.383Z,9.50
2023-04-22T02:39:40.763Z,6.90
2023-04-22T02:40:40.314Z,6.30
2023-04-22T02:41:40.377Z,6.00
2023-04-22T02:42:40.363Z,5.60
2023-04-22T02:43:40.293Z,6.00
2023-04-22T02:44:40.289Z,7.50
2023-04-22T02:45:40.315Z,6.80
2023-04-22T02:46:40.301Z,6.10
2023-04-22T02:47:40.272Z,5.80
2023-04-22T02:48:40.298Z,6.00
2023-04-22T02:49:40.459Z,6.00
2023-04-22T02:50:40.231Z,6.50
2023-04-22T02:51:40.206Z,5.30
2023-04-22T02:52:40.213Z,5.00
2023-04-22T02:53:40.167Z,9.20
2023-04-22T02:54:40.169Z,4.70
2023-04-22T02:55:40.184Z,6.10
2023-04-22T02:56:40.166Z,4.70
2023-04-22T02:57:40.166Z,4.10
2023-04-22T02:58:40.156Z,5.60
2023-04-22T02:59:40.471Z,5.80
2023-04-22T03:00:40.145Z,4.60
2023-04-22T03:01:40.143Z,4.40
2023-04-22T03:02:40.312Z,4.90
2023-04-22T03:03:40.267Z,3.40
2023-04-22T03:04:40.200Z,5.10
2023-04-22T03:05:40.149Z,3.90
2023-04-22T03:06:40.064Z,5.00
2023-04-22T03:07:40.043Z,4.70
2023-04-22T03:08:40.051Z,5.80
2023-04-22T03:09:40.376Z,4.50
2023-04-22T03:10:40.035Z,5.20
2023-04-22T03:11:40.048Z,6.30
2023-04-22T03:12:39.997Z,5.30
2023-04-22T03:13:40.003Z,5.70
2023-04-22T03:14:39.985Z,4.30
2023-04-22T03:15:39.964Z,4.50
2023-04-22T03:16:40.113Z,5.30
2023-04-22T03:17:39.942Z,3.10
2023-04-22T03:18:39.917Z,4.80
2023-04-22T03:19:40.110Z,4.80
2023-04-22T03:20:39.929Z,4.20
2023-04-22T03:21:39.890Z,3.90
2023-04-22T03:22:39.918Z,4.90
2023-04-22T03:23:39.866Z,4.40
2023-04-22T03:24:39.926Z,3.60
2023-04-22T03:25:39.925Z,4.80
2023-04-22T03:26:39.857Z,4.00
2023-04-22T03:27:39.837Z,4.80
2023-04-22T03:28:39.865Z,5.90
2023-04-22T03:29:40.058Z,6.40
2023-04-22T03:30:39.898Z,4.60
2023-04-22T03:31:40.010Z,4.40
2023-04-22T03:32:39.853Z,4.80
2023-04-22T03:33:39.934Z,4.70
2023-04-22T03:34:39.740Z,4.70
2023-04-22T03:35:39.803Z,5.00
2023-04-22T03:36:39.804Z,4.20
2023-04-22T03:37:39.847Z,5.30
2023-04-22T03:38:39.850Z,5.90
2023-04-22T03:39:39.999Z,6.10
2023-04-22T03:40:39.686Z,5.50
2023-04-22T03:41:39.771Z,4.60
2023-04-22T03:42:39.728Z,4.60
2023-04-22T03:43:39.766Z,5.50
2023-04-22T03:44:39.763Z,6.50
2023-04-22T03:45:39.824Z,4.00
2023-04-22T03:46:39.705Z,4.30
2023-04-22T03:47:39.653Z,4.10
2023-04-22T03:48:39.720Z,4.50
2023-04-22T03:49:39.963Z,4.40
2023-04-22T03:50:39.653Z,4.50
2023-04-22T03:51:39.654Z,6.20
2023-04-22T03:52:39.556Z,5.40
2023-04-22T03:53:39.705Z,4.20
2023-04-22T03:54:39.676Z,3.80
2023-04-22T03:55:39.557Z,4.80
2023-04-22T03:56:39.575Z,4.80
2023-04-22T03:57:39.519Z,4.20
2023-04-22T03:58:39.607Z,5.20
2023-04-22T03:59:39.948Z,4.90
2023-04-22T04:00:39.607Z,3.90
2023-04-22T04:01:39.572Z,4.30
2023-04-22T04:02:39.883Z,4.90
2023-04-22T04:03:39.800Z,4.90
2023-04-22T04:04:39.935Z,4.40
2023-04-22T04:05:39.805Z,4.40
2023-04-22T04:06:39.500Z,6.50
2023-04-22T04:07:39.533Z,4.10
2023-04-22T04:08:39.544Z,5.00
2023-04-22T04:09:39.641Z,5.30
2023-04-22T04:10:39.458Z,6.10
2023-04-22T04:11:39.413Z,6.10
2023-04-22T04:12:39.559Z,4.60
2023-04-22T04:13:39.589Z,9.70
2023-04-22T04:14:39.389Z,5.30
2023-04-22T04:15:39.476Z,6.90
2023-04-22T04:16:39.386Z,4.30
2023-04-22T04:17:39.343Z,4.80
2023-04-22T04:18:39.608Z,7.40
2023-04-22T04:19:39.723Z,5.80
2023-04-22T04:20:39.265Z,4.10
2023-04-22T04:21:39.294Z,5.10
2023-04-22T04:22:39.261Z,4.80
2023-04-22T04:23:39.239Z,4.00
2023-04-22T04:24:39.324Z,5.00
2023-04-22T04:25:39.375Z,4.30
2023-04-22T04:26:39.211Z,6.50
2023-04-22T04:27:39.248Z,6.10
2023-04-22T04:28:39.249Z,9.40
2023-04-22T04:29:39.776Z,6.10
2023-04-22T04:30:39.263Z,4.30
2023-04-22T04:31:39.270Z,6.50
2023-04-22T04:32:39.163Z,7.80
2023-04-22T04:33:39.164Z,4.40
2023-04-22T04:34:39.129Z,6.60
2023-04-22T04:35:39.114Z,4.40
2023-04-22T04:36:39.114Z,5.90
2023-04-22T04:37:39.155Z,4.70
2023-04-22T04:38:39.075Z,4.50
2023-04-22T04:39:39.326Z,4.60
2023-04-22T04:40:39.068Z,5.20
2023-04-22T04:41:39.084Z,4.60
2023-04-22T04:42:39.032Z,6.90
2023-04-22T04:43:39.087Z,6.90
2023-04-22T04:44:39.012Z,6.40
2023-04-22T04:45:39.017Z,6.10
2023-04-22T04:46:39.048Z,7.80
2023-04-22T04:47:39.065Z,4.90
2023-04-22T04:48:39.018Z,6.50
2023-04-22T04:49:39.198Z,8.70
2023-04-22T04:50:38.985Z,4.90
2023-04-22T04:51:39.000Z,5.20
2023-04-22T04:52:38.913Z,4.20
2023-04-22T04:53:38.937Z,5.10
2023-04-22T04:54:38.966Z,4.60
2023-04-22T04:55:38.948Z,3.70
2023-04-22T04:56:38.956Z,6.00
2023-04-22T04:57:38.902Z,5.50
2023-04-22T04:58:38.945Z,5.10
2023-04-22T04:59:39.204Z,3.80
2023-04-22T05:00:38.855Z,4.70
2023-04-22T05:01:39.027Z,3.80
2023-04-22T05:02:39.001Z,5.50
2023-04-22T05:03:39.119Z,5.50
2023-04-22T05:04:39.074Z,4.60
2023-04-22T05:05:38.824Z,5.60
2023-04-22T05:06:38.783Z,4.90
2023-04-22T05:07:38.794Z,6.00
2023-04-22T05:08:38.759Z,5.30
2023-04-22T05:09:38.997Z,10.40
2023-04-22T05:10:38.772Z,6.10
2023-04-22T05:11:38.731Z,6.60
2023-04-22T05:12:38.730Z,6.80
2023-04-22T05:13:38.781Z,7.10
2023-04-22T05:14:38.742Z,4.50
2023-04-22T05:15:38.696Z,5.30
2023-04-22T05:16:38.795Z,5.70
2023-04-22T05:17:38.757Z,6.30
2023-04-22T05:18:38.646Z,5.20
2023-04-22T05:19:38.955Z,6.40
2023-04-22T05:20:38.657Z,6.20
2023-04-22T05:21:38.724Z,5.10
2023-04-22T05:22:38.646Z,6.60
2023-04-22T05:23:38.636Z,7.20
2023-04-22T05:24:38.597Z,5.00
2023-04-22T05:25:38.616Z,7.90
2023-04-22T05:26:38.625Z,5.10
2023-04-22T05:27:38.597Z,6.00
2023-04-22T05:28:38.564Z,5.90
2023-04-22T05:29:38.893Z,11.00
2023-04-22T05:30:38.578Z,5.90
2023-04-22T05:31:38.642Z,4.50
2023-04-22T05:32:38.566Z,6.20
2023-04-22T05:33:38.555Z,5.40
2023-04-22T05:34:38.513Z,5.30
2023-04-22T05:35:38.545Z,6.60
2023-04-22T05:36:38.492Z,5.10
2023-04-22T05:37:38.698Z,6.60
2023-04-22T05:38:38.472Z,5.00
2023-04-22T05:39:38.714Z,5.90
2023-04-22T05:40:38.431Z,5.70
2023-04-22T05:41:38.445Z,5.90
2023-04-22T05:42:38.410Z,5.50
2023-04-22T05:43:38.427Z,8.40
2023-04-22T05:44:38.400Z,5.80
2023-04-22T05:45:38.445Z,8.00
2023-04-22T05:46:38.493Z,5.70
2023-04-22T05:47:38.399Z,6.00
2023-04-22T05:48:38.380Z,4.80
2023-04-22T05:49:38.537Z,7.40
2023-04-22T05:50:38.369Z,5.90
2023-04-22T05:51:38.320Z,6.50
2023-04-22T05:52:38.358Z,5.10
2023-04-22T05:53:38.304Z,5.90
2023-04-22T05:54:38.323Z,6.00
2023-04-22T05:55:38.287Z,11.10
2023-04-22T05:56:38.336Z,5.30
2023-04-22T05:57:38.288Z,6.80
2023-04-22T05:58:38.272Z,7.20
2023-04-22T05:59:38.636Z,7.70
2023-04-22T06:00:38.220Z,7.60
2023-04-22T06:01:38.249Z,4.80
2023-04-22T06:02:38.313Z,7.10
2023-04-22T06:03:38.514Z,8.30
2023-04-22T06:04:38.474Z,5.80
2023-04-22T06:05:38.236Z,5.90
2023-04-22T06:06:38.209Z,5.70
2023-04-22T06:07:38.135Z,7.10
2023-04-22T06:08:38.181Z,5.90
2023-04-22T06:09:38.354Z,7.50
2023-04-22T06:10:38.113Z,5.40
2023-04-22T06:11:38.110Z,5.90
2023-04-22T06:12:38.110Z,6.60
2023-04-22T06:13:38.092Z,8.00
2023-04-22T06:14:38.077Z,7.60
2023-04-22T06:15:38.179Z,5.70
2023-04-22T06:16:38.063Z,7.00
2023-04-22T06:17:38.087Z,7.70
2023-04-22T06:18:38.490Z,6.40
2023-04-22T06:19:38.307Z,10.00
2023-04-22T06:20:38.026Z,7.80
2023-04-22T06:21:38.019Z,6.10
2023-04-22T06:22:38.008Z,7.10
2023-04-22T06:23:38.032Z,6.30
2023-04-22T06:24:38.026Z,9.00
2023-04-22T06:25:38.041Z,4.80
2023-04-22T06:26:37.973Z,5.50
2023-04-22T06:27:37.925Z,5.10
2023-04-22T06:28:37.913Z,7.40
2023-04-22T06:29:38.048Z,11.20
2023-04-22T06:30:37.895Z,5.90
2023-04-22T06:31:37.994Z,6.10
2023-04-22T06:32:37.961Z,6.30
2023-04-22T06:33:37.870Z,5.70
2023-04-22T06:34:37.870Z,5.10
2023-04-22T06:35:37.884Z,6.50
2023-04-22T06:36:37.836Z,6.00
2023-04-22T06:37:37.822Z,5.30
2023-04-22T06:38:37.812Z,7.60
2023-04-22T06:39:38.068Z,7.20
2023-04-22T06:40:37.786Z,6.60
2023-04-22T06:41:40.119Z,6.30
2023-04-22T06:42:37.750Z,6.60
2023-04-22T06:43:37.766Z,5.80
2023-04-22T06:44:37.737Z,5.40
2023-04-22T06:45:37.734Z,6.60
2023-04-22T06:46:37.817Z,6.70
2023-04-22T06:47:37.729Z,5.30
2023-04-22T06:48:37.695Z,8.60
2023-04-22T06:49:37.992Z,6.70
2023-04-22T06:50:37.702Z,6.60
2023-04-22T06:51:37.673Z,7.40
2023-04-22T06:52:37.656Z,7.40
2023-04-22T06:53:37.718Z,7.80
2023-04-22T06:54:37.643Z,6.50
2023-04-22T06:55:37.619Z,6.10
2023-04-22T06:56:37.624Z,6.10
2023-04-22T06:57:37.619Z,5.30
2023-04-22T06:58:37.644Z,4.90
2023-04-22T06:59:37.769Z,5.70
2023-04-22T07:00:37.559Z,6.90
2023-04-22T07:01:37.598Z,6.50
2023-04-22T07:02:37.682Z,5.60
2023-04-22T07:03:37.642Z,7.20
2023-04-22T07:04:37.651Z,5.60
2023-04-22T07:05:39.627Z,7.10
2023-04-22T07:06:37.493Z,6.60
2023-04-22T07:07:37.491Z,6.10
2023-04-22T07:08:37.495Z,5.70
2023-04-22T07:09:37.787Z,3.90
2023-04-22T07:10:37.507Z,4.60
2023-04-22T07:11:37.435Z,4.50
2023-04-22T07:12:37.431Z,6.00
2023-04-22T07:13:37.437Z,6.60
2023-04-22T07:14:37.420Z,4.00
2023-04-22T07:15:37.420Z,4.80
2023-04-22T07:16:37.432Z,3.70
2023-04-22T07:17:37.482Z,4.30
2023-04-22T07:18:37.362Z,5.50
2023-04-22T07:19:37.597Z,4.10
2023-04-22T07:20:37.348Z,5.30
2023-04-22T07:21:37.352Z,4.10
2023-04-22T07:22:37.356Z,4.60
2023-04-22T07:23:37.345Z,4.60
2023-04-22T07:24:37.347Z,4.90
2023-04-22T07:25:37.320Z,5.60
2023-04-22T07:26:37.280Z,5.00
2023-04-22T07:27:37.459Z,5.30
2023-04-22T07:28:37.292Z,4.70
2023-04-22T07:29:37.443Z,5.20
2023-04-22T07:30:37.241Z,4.10
2023-04-22T07:31:37.284Z,5.00
2023-04-22T07:32:37.254Z,4.90
2023-04-22T07:33:37.233Z,5.20
2023-04-22T07:34:37.204Z,4.90
2023-04-22T07:35:37.173Z,4.90
2023-04-22T07:36:37.191Z,4.40
2023-04-22T07:37:37.238Z,5.50
2023-04-22T07:38:37.153Z,5.80
2023-04-22T07:39:37.466Z,5.70
2023-04-22T07:40:37.153Z,4.80
2023-04-22T07:41:37.120Z,5.60
2023-04-22T07:42:37.127Z,5.40
2023-04-22T07:43:37.135Z,6.30
2023-04-22T07:44:39.436Z,4.20
2023-04-22T07:45:37.094Z,4.60
2023-04-22T07:46:37.086Z,4.80
2023-04-22T07:47:37.185Z,4.60
2023-04-22T07:48:37.051Z,3.60
2023-04-22T07:49:37.411Z,4.70
2023-04-22T07:50:38.873Z,4.40
2023-04-22T07:51:37.042Z,4.60
2023-04-22T07:52:37.036Z,5.30
2023-04-22T07:53:37.032Z,4.10
2023-04-22T07:54:37.002Z,4.30
2023-04-22T07:55:36.994Z,3.30
2023-04-22T07:56:36.989Z,5.70
2023-04-22T07:57:36.973Z,3.80
2023-04-22T07:58:36.947Z,4.20
2023-04-22T07:59:37.205Z,4.10
2023-04-22T08:00:36.995Z,5.50
2023-04-22T08:01:36.939Z,4.60
2023-04-22T08:02:36.985Z,5.10
2023-04-22T08:03:37.119Z,4.50
2023-04-22T08:04:36.984Z,4.30
2023-04-22T08:05:36.870Z,4.10
2023-04-22T08:06:36.876Z,4.20
2023-04-22T08:07:36.857Z,4.30
2023-04-22T08:08:36.926Z,3.30
2023-04-22T08:09:36.988Z,4.80
2023-04-22T08:10:36.853Z,6.00
2023-04-22T08:11:36.811Z,5.60
2023-04-22T08:12:36.791Z,3.80
2023-04-22T08:13:36.797Z,3.80
2023-04-22T08:14:36.830Z,5.40
2023-04-22T08:15:36.808Z,4.70
2023-04-22T08:16:36.773Z,4.20
2023-04-22T08:17:36.811Z,4.00
2023-04-22T08:18:36.731Z,3.40
2023-04-22T08:19:36.957Z,5.20
2023-04-22T08:20:36.740Z,4.70
2023-04-22T08:21:36.719Z,6.30
2023-04-22T08:22:36.757Z,4.00
2023-04-22T08:23:36.671Z,6.40
2023-04-22T08:24:36.666Z,4.90
2023-04-22T08:25:36.683Z,6.60
2023-04-22T08:26:36.728Z,5.50
2023-04-22T08:27:36.651Z,3.60
2023-04-22T08:28:36.687Z,3.20
2023-04-22T08:29:36.625Z,5.90
2023-04-22T08:30:36.612Z,7.80
2023-04-22T08:31:36.606Z,4.20
2023-04-22T08:32:36.697Z,2.90
2023-04-22T08:33:36.612Z,3.60
2023-04-22T08:34:37.171Z,3.80
2023-04-22T08:35:36.548Z,4.20
2023-04-22T08:36:36.565Z,3.00
2023-04-22T08:37:36.549Z,4.50
2023-04-22T08:38:36.540Z,3.90
2023-04-22T08:39:36.755Z,4.00
2023-04-22T08:40:36.533Z,3.10
2023-04-22T08:41:36.485Z,4.40
2023-04-22T08:42:36.484Z,3.60
2023-04-22T08:43:36.481Z,3.40
2023-04-22T08:44:36.471Z,3.90
2023-04-22T08:45:36.467Z,5.40
2023-04-22T08:46:36.533Z,3.30
2023-04-22T08:47:36.475Z,4.60
2023-04-22T08:48:36.416Z,3.60
2023-04-22T08:49:36.538Z,2.90
2023-04-22T08:50:36.415Z,4.20
2023-04-22T08:51:36.397Z,4.20
2023-04-22T08:52:36.385Z,7.00
2023-04-22T08:53:36.364Z,4.60
2023-04-22T08:54:36.382Z,4.00
2023-04-22T08:55:36.371Z,4.40
2023-04-22T08:56:36.378Z,3.10
2023-04-22T08:57:36.337Z,3.70
2023-04-22T08:58:36.333Z,3.90
2023-04-22T08:59:36.324Z,3.80
2023-04-22T09:00:36.294Z,5.80
2023-04-22T09:01:36.343Z,3.50
2023-04-22T09:02:36.330Z,5.10
2023-04-22T09:03:36.358Z,3.30
2023-04-22T09:04:36.342Z,3.40
2023-04-22T09:05:36.233Z,3.60
2023-04-22T09:06:36.238Z,3.50
2023-04-22T09:07:36.220Z,4.40
2023-04-22T09:08:36.202Z,5.00
2023-04-22T09:09:36.226Z,3.30
2023-04-22T09:10:36.185Z,4.30
2023-04-22T09:11:36.178Z,3.40
2023-04-22T09:12:36.176Z,4.50
2023-04-22T09:13:36.155Z,3.50
2023-04-22T09:14:36.170Z,3.30
2023-04-22T09:15:36.126Z,2.50
2023-04-22T09:16:36.233Z,4.50
2023-04-22T09:17:36.184Z,3.40
2023-04-22T09:18:36.088Z,4.80
2023-04-22T09:19:36.172Z,4.00
2023-04-22T09:20:36.101Z,3.60
2023-04-22T09:21:36.120Z,3.60
2023-04-22T09:22:36.078Z,3.80
2023-04-22T09:23:36.044Z,2.90
2023-04-22T09:24:36.036Z,3.30
2023-04-22T09:25:36.016Z,3.40
2023-04-22T09:26:36.029Z,4.20
2023-04-22T09:27:36.008Z,3.90
2023-04-22T09:28:36.022Z,4.00
2023-04-22T09:29:36.004Z,4.10
2023-04-22T09:30:35.987Z,3.10
2023-04-22T09:31:36.026Z,3.80
2023-04-22T09:32:36.060Z,3.40
2023-04-22T09:33:35.949Z,3.80
2023-04-22T09:34:35.991Z,3.10
2023-04-22T09:35:35.911Z,2.70
2023-04-22T09:36:35.923Z,4.80
2023-04-22T09:37:46.611Z,3.20
2023-04-22T09:38:35.920Z,5.70
2023-04-22T09:39:35.880Z,2.60
2023-04-22T09:40:35.898Z,3.20
2023-04-22T09:41:35.856Z,4.30
2023-04-22T09:42:35.898Z,5.30
2023-04-22T09:43:35.854Z,4.30
2023-04-22T09:44:35.832Z,2.60
2023-04-22T09:45:35.894Z,3.30
2023-04-22T09:46:35.855Z,3.00
2023-04-22T09:47:35.868Z,3.80
2023-04-22T09:48:35.850Z,4.40
2023-04-22T09:49:35.802Z,2.90
2023-04-22T09:50:35.774Z,2.80
2023-04-22T09:51:35.759Z,5.00
2023-04-22T09:52:35.770Z,4.90
2023-04-22T09:53:35.746Z,3.50
2023-04-22T09:54:35.721Z,4.70
2023-04-22T09:55:35.717Z,2.70
2023-04-22T09:56:35.739Z,3.00
2023-04-22T09:57:35.711Z,3.10
2023-04-22T09:58:35.694Z,3.20
2023-04-22T09:59:35.702Z,2.80
2023-04-22T10:00:35.665Z,13.30
2023-04-22T10:01:35.722Z,9.40
2023-04-22T10:02:35.756Z,3.50
2023-04-22T10:03:35.682Z,4.20
2023-04-22T10:04:35.714Z,6.90
2023-04-22T10:05:35.607Z,5.10
2023-04-22T10:06:35.624Z,9.80
2023-04-22T10:07:35.600Z,5.50
2023-04-22T10:08:35.587Z,2.60
2023-04-22T10:09:35.630Z,2.30
2023-04-22T10:10:35.601Z,3.80
2023-04-22T10:11:35.534Z,7.20
2023-04-22T10:12:36.235Z,2.60
2023-04-22T10:13:35.547Z,2.60
2023-04-22T10:14:35.527Z,2.50
2023-04-22T10:15:35.530Z,5.00
2023-04-22T10:16:35.534Z,2.70
2023-04-22T10:17:35.554Z,2.40
2023-04-22T10:18:35.476Z,2.60
2023-04-22T10:19:35.500Z,2.90
2023-04-22T10:20:35.508Z,3.10
2023-04-22T10:21:35.472Z,2.60
2023-04-22T10:22:35.444Z,2.80
2023-04-22T10:23:35.490Z,3.50
2023-04-22T10:24:35.422Z,3.40
2023-04-22T10:25:35.399Z,2.00
2023-04-22T10:26:35.401Z,3.70
2023-04-22T10:27:35.393Z,2.80
2023-04-22T10:28:35.408Z,2.80
2023-04-22T10:29:35.392Z,4.20
2023-04-22T10:30:35.379Z,2.30
2023-04-22T10:31:35.458Z,4.80
2023-04-22T10:32:35.378Z,2.90
2023-04-22T10:33:35.392Z,2.40
2023-04-22T10:34:35.371Z,3.10
2023-04-22T10:35:35.321Z,2.80
2023-04-22T10:36:35.309Z,3.20
2023-04-22T10:37:35.288Z,3.40
2023-04-22T10:38:35.352Z,3.20
2023-04-22T10:39:35.262Z,2.40
2023-04-22T10:40:35.285Z,2.70
2023-04-22T10:41:35.277Z,2.30
2023-04-22T10:42:35.266Z,3.50
2023-04-22T10:43:35.243Z,1.70
2023-04-22T10:44:35.400Z,2.30
2023-04-22T10:45:35.226Z,2.80
2023-04-22T10:46:35.373Z,2.60
2023-04-22T10:47:35.253Z,2.80
2023-04-22T10:48:35.205Z,3.40
2023-04-22T10:49:35.173Z,1.70
2023-04-22T10:50:35.167Z,2.00
2023-04-22T10:51:35.128Z,3.00
2023-04-22T10:52:35.157Z,2.20
2023-04-22T10:53:35.125Z,2.50
2023-04-22T10:54:35.155Z,2.60
2023-04-22T10:55:35.141Z,2.90
2023-04-22T10:56:36.286Z,2.00
2023-04-22T10:57:35.083Z,1.60
2023-04-22T10:58:35.103Z,2.10
2023-04-22T10:59:35.098Z,3.30
2023-04-22T11:00:45.607Z,1.80
2023-04-22T11:01:35.087Z,2.00
2023-04-22T11:02:35.208Z,1.70
2023-04-22T11:03:35.214Z,2.60
2023-04-22T11:04:35.103Z,3.20
2023-04-22T11:05:35.029Z,3.10
2023-04-22T11:06:35.007Z,3.20
2023-04-22T11:07:35.061Z,2.30
2023-04-22T11:08:35.011Z,2.50
2023-04-22T11:09:34.964Z,3.80
2023-04-22T11:10:35.722Z,2.40
2023-04-22T11:11:34.965Z,2.00
2023-04-22T11:12:35.063Z,2.70
2023-04-22T11:13:34.994Z,2.70
2023-04-22T11:14:34.990Z,3.90
2023-04-22T11:15:34.914Z,4.70
2023-04-22T11:16:35.015Z,2.40
2023-04-22T11:17:34.937Z,3.30
2023-04-22T11:18:34.913Z,5.50
2023-04-22T11:19:34.934Z,4.40
2023-04-22T11:20:34.910Z,2.80
2023-04-22T11:21:34.876Z,4.40
2023-04-22T11:22:34.886Z,3.10
2023-04-22T11:23:34.892Z,4.10
2023-04-22T11:24:34.862Z,4.40
2023-04-22T11:25:34.857Z,2.80
2023-04-22T11:26:34.875Z,2.00
2023-04-22T11:27:34.813Z,4.00
2023-04-22T11:28:34.821Z,4.00
2023-04-22T11:29:34.788Z,2.20
2023-04-22T11:30:34.810Z,3.10
2023-04-22T11:31:34.811Z,6.20
2023-04-22T11:32:34.855Z,2.50
2023-04-22T11:33:34.793Z,2.40
2023-04-22T11:34:34.761Z,2.50
2023-04-22T11:35:34.739Z,3.10
2023-04-22T11:36:34.731Z,4.40
2023-04-22T11:37:34.728Z,4.80
2023-04-22T11:38:34.751Z,1.70
2023-04-22T11:39:34.715Z,1.80
2023-04-22T11:40:37.840Z,3.70
2023-04-22T11:41:34.671Z,2.10
2023-04-22T11:42:34.678Z,3.30
2023-04-22T11:43:34.686Z,2.30
2023-04-22T11:44:34.669Z,1.70
2023-04-22T11:45:34.708Z,2.60
2023-04-22T11:46:34.779Z,2.20
2023-04-22T11:47:34.684Z,2.00
2023-04-22T11:48:34.641Z,5.50
2023-04-22T11:49:34.654Z,2.40
2023-04-22T11:50:34.654Z,2.90
2023-04-22T11:51:34.663Z,4.90
2023-04-22T11:52:34.612Z,3.30
2023-04-22T11:53:34.634Z,1.90
2023-04-22T11:54:34.677Z,3.20
2023-04-22T11:55:34.716Z,2.10
2023-04-22T11:56:34.545Z,1.70
2023-04-22T11:57:34.563Z,3.40
2023-04-22T11:58:34.576Z,2.10
2023-04-22T11:59:34.580Z,1.90
2023-04-22T12:00:34.579Z,5.70
2023-04-22T12:01:34.542Z,3.00
2023-04-22T12:02:34.725Z,2.20
2023-04-22T12:03:34.780Z,2.00
2023-04-22T12:04:34.496Z,1.60
2023-04-22T12:05:34.777Z,2.20
2023-04-22T12:06:34.474Z,1.80
2023-04-22T12:07:34.422Z,2.10
2023-04-22T12:08:34.570Z,2.20
2023-04-22T12:09:34.429Z,2.80
2023-04-22T12:10:34.493Z,1.80
2023-04-22T12:11:34.438Z,4.70
2023-04-22T12:12:34.398Z,5.40
2023-04-22T12:13:34.410Z,2.10
2023-04-22T12:14:34.407Z,2.20
2023-04-22T12:15:34.356Z,3.70
2023-04-22T12:16:34.437Z,4.30
2023-04-22T12:17:34.426Z,2.40
2023-04-22T12:18:34.384Z,1.80
2023-04-22T12:19:34.333Z,2.60
2023-04-22T12:20:34.325Z,1.90
2023-04-22T12:21:34.309Z,2.60
2023-04-22T12:22:34.299Z,2.00
2023-04-22T12:23:34.357Z,1.30
2023-04-22T12:24:34.317Z,2.90
2023-04-22T12:25:34.315Z,3.20
2023-04-22T12:26:34.284Z,3.30
2023-04-22T12:27:34.302Z,2.40
2023-04-22T12:28:34.251Z,2.00
2023-04-22T12:29:34.251Z,4.30
2023-04-22T12:30:34.239Z,1.50
2023-04-22T12:31:34.582Z,2.70
2023-04-22T12:32:34.279Z,2.70
2023-04-22T12:33:34.313Z,2.70
2023-04-22T12:34:34.280Z,2.20
2023-04-22T12:35:34.247Z,2.00
2023-04-22T12:36:34.234Z,2.80
2023-04-22T12:37:34.190Z,2.60
2023-04-22T12:38:34.176Z,2.70
2023-04-22T12:39:34.175Z,3.20
2023-04-22T12:40:34.164Z,2.10
2023-04-22T12:41:34.114Z,2.20
2023-04-22T12:42:34.107Z,2.90
2023-04-22T12:43:34.142Z,2.00
2023-04-22T12:44:34.147Z,2.30
2023-04-22T12:45:34.101Z,2.00
2023-04-22T12:46:34.220Z,3.30
2023-04-22T12:47:34.093Z,1.80
2023-04-22T12:48:34.080Z,2.00
2023-04-22T12:49:34.063Z,2.20
2023-04-22T12:50:34.034Z,2.70
2023-04-22T12:51:34.092Z,5.30
2023-04-22T12:52:34.037Z,1.80
2023-04-22T12:53:34.027Z,2.00
2023-04-22T12:54:33.990Z,1.20
2023-04-22T12:55:34.010Z,2.20
2023-04-22T12:56:34.028Z,2.50
2023-04-22T12:57:33.983Z,4.70
2023-04-22T12:58:33.981Z,2.20
2023-04-22T12:59:33.968Z,2.70
2023-04-22T13:00:33.961Z,2.90
2023-04-22T13:01:35.828Z,1.80
2023-04-22T13:02:34.141Z,2.00
2023-04-22T13:03:34.104Z,2.70
2023-04-22T13:04:33.998Z,1.70
2023-04-22T13:05:33.942Z,4.10
2023-04-22T13:06:33.867Z,2.30
2023-04-22T13:07:33.877Z,1.60
2023-04-22T13:08:33.900Z,3.20
2023-04-22T13:09:33.873Z,2.00
2023-04-22T13:10:33.865Z,2.00
2023-04-22T13:11:33.854Z,1.70
2023-04-22T13:12:33.877Z,3.80
2023-04-22T13:13:33.806Z,2.90
2023-04-22T13:14:33.800Z,1.70
2023-04-22T13:15:33.815Z,3.00
2023-04-22T13:16:33.844Z,2.50
2023-04-22T13:17:33.816Z,2.80
2023-04-22T13:18:33.794Z,2.20